Time;durP1;ratioP1;P1;durP2;ratioP2;P2;SDS_P1;SDS_P2;PMS_P1;PMS_P2;Temp;Humidity;BMP_temperature;BMP_pressure;BME280_temperature;BME280_humidity;BME280_pressure;Samples;Min_cycle;Max_cycle;Signal;HPM_P1;HPM_P2
2022/08/07 00:03:03;;;;;;;18.35;8.93;;;;;;;;;;10476650;28;20049;-77
2022/08/07 00:08:15;;;;;;;16.35;8.07;;;;;;;;;;10469235;28;20048;-77
2022/08/07 00:13:28;;;;;;;19.38;9.27;;;;;;;;;;10445498;28;20032;-77
2022/08/07 00:18:41;;;;;;;18.48;8.65;;;;;;;;;;10477029;28;20043;-77
2022/08/07 00:23:47;;;;;;;17.95;8.02;;;;;;;;;;10449572;28;20025;-78
2022/08/07 00:28:54;;;;;;;15.35;7.85;;;;;;;;;;10462885;28;20051;-78
2022/08/07 00:34:06;;;;;;;13.32;6.75;;;;;;;;;;10469823;28;20473;-78
2022/08/07 00:39:11;;;;;;;11.73;6.05;;;;;;;;;;10470761;28;20029;-77
2022/08/07 00:44:22;;;;;;;12.52;6.70;;;;;;;;;;10474211;28;20582;-78
2022/08/07 00:49:30;;;;;;;12.43;5.90;;;;;;;;;;10438159;28;20525;-79
2022/08/07 00:54:55;;;;;;;11.45;6.05;;;;;;;;;;10458084;28;20588;-77
2022/08/07 01:00:01;;;;;;;9.90;5.18;;;;;;;;;;10479661;28;20039;-77
2022/08/07 01:05:12;;;;;;;9.10;4.88;;;;;;;;;;10456032;28;20052;-77
2022/08/07 01:10:26;;;;;;;8.27;4.43;;;;;;;;;;10475496;28;20135;-76
2022/08/07 01:15:51;;;;;;;14.18;5.47;;;;;;;;;;10456852;28;20036;-77
2022/08/07 01:21:32;;;;;;;8.80;4.88;;;;;;;;;;10462362;28;20605;-77
2022/08/07 01:26:48;;;;;;;9.23;4.93;;;;;;;;;;10434042;28;21269;-78
2022/08/07 01:32:25;;;;;;;12.18;5.68;;;;;;;;;;10471209;28;20493;-81
2022/08/07 01:37:36;;;;;;;11.23;5.72;;;;;;;;;;10438763;28;20040;-81
2022/08/07 01:43:12;;;;;;;10.05;5.47;;;;;;;;;;10471038;28;20037;-81
2022/08/07 01:48:20;;;;;;;11.65;6.25;;;;;;;;;;10432933;28;20040;-81
2022/08/07 01:53:38;;;;;;;11.55;5.53;;;;;;;;;;10467015;28;20273;-80
2022/08/07 01:59:15;;;;;;;9.05;4.93;;;;;;;;;;10477052;28;20037;-80
2022/08/07 02:04:27;;;;;;;10.68;5.40;;;;;;;;;;10508878;28;20060;-78
2022/08/07 02:09:47;;;;;;;8.43;4.97;;;;;;;;;;10479103;28;20311;-80
2022/08/07 02:15:11;;;;;;;7.32;4.63;;;;;;;;;;10488395;28;20043;-79
2022/08/07 02:20:29;;;;;;;9.43;5.05;;;;;;;;;;10452147;28;20037;-80
2022/08/07 02:25:38;;;;;;;9.18;4.40;;;;;;;;;;10451827;28;20043;-80
2022/08/07 02:31:12;;;;;;;7.03;4.32;;;;;;;;;;10489566;28;20037;-80
2022/08/07 02:36:34;;;;;;;8.57;4.55;;;;;;;;;;10445186;28;20037;-82
2022/08/07 02:41:44;;;;;;;8.55;4.57;;;;;;;;;;10468115;28;20138;-82
2022/08/07 02:47:10;;;;;;;10.05;5.10;;;;;;;;;;10484470;28;20089;-82
2022/08/07 02:52:30;;;;;;;9.95;5.22;;;;;;;;;;10450659;28;20153;-81
2022/08/07 02:57:51;;;;;;;10.50;5.72;;;;;;;;;;10465769;28;20093;-81
2022/08/07 03:03:05;;;;;;;9.30;5.45;;;;;;;;;;10448537;28;20044;-80
2022/08/07 03:08:18;;;;;;;11.00;5.65;;;;;;;;;;10488085;28;20041;-82
2022/08/07 03:13:38;;;;;;;10.15;5.60;;;;;;;;;;10465349;28;20051;-81
2022/08/07 03:19:04;;;;;;;11.68;5.05;;;;;;;;;;10451275;28;20089;-80
2022/08/07 03:24:18;;;;;;;9.82;5.00;;;;;;;;;;10459776;28;20060;-80
2022/08/07 03:29:42;;;;;;;8.30;4.90;;;;;;;;;;10478349;28;20047;-81
2022/08/07 03:34:54;;;;;;;10.13;5.70;;;;;;;;;;10450391;28;20094;-80
2022/08/07 03:40:24;;;;;;;11.05;5.60;;;;;;;;;;10468261;28;20132;-82
2022/08/07 03:45:44;;;;;;;11.52;5.65;;;;;;;;;;10468440;28;20027;-82
2022/08/07 03:50:54;;;;;;;11.27;6.38;;;;;;;;;;10469408;28;20048;-82
2022/08/07 03:56:02;;;;;;;8.90;5.05;;;;;;;;;;10478950;28;20036;-80
2022/08/07 04:06:52;;;;;;;13.60;5.72;;;;;;;;;;10462113;28;20055;-83
2022/08/07 04:12:04;;;;;;;9.38;5.25;;;;;;;;;;10447780;28;20050;-79
2022/08/07 04:17:53;;;;;;;10.98;5.22;;;;;;;;;;10476782;28;20509;-81
2022/08/07 04:23:23;;;;;;;12.48;6.18;;;;;;;;;;10462508;28;20124;-81
2022/08/07 04:28:56;;;;;;;10.30;5.55;;;;;;;;;;10463499;28;20124;-81
2022/08/07 04:34:11;;;;;;;10.90;6.03;;;;;;;;;;10472824;28;20045;-81
2022/08/07 04:39:28;;;;;;;11.32;5.82;;;;;;;;;;10466796;28;20044;-80
2022/08/07 04:44:39;;;;;;;10.38;5.30;;;;;;;;;;10463689;28;20449;-81
2022/08/07 04:50:18;;;;;;;10.68;5.28;;;;;;;;;;10450050;28;20505;-81
2022/08/07 04:55:31;;;;;;;10.27;4.82;;;;;;;;;;10438971;28;20117;-81
2022/08/07 05:01:00;;;;;;;9.87;4.53;;;;;;;;;;10473169;28;20400;-82
2022/08/07 05:06:13;;;;;;;8.27;4.28;;;;;;;;;;10463044;28;20071;-81
2022/08/07 05:11:26;;;;;;;8.43;5.07;;;;;;;;;;10459100;28;20144;-81
2022/08/07 05:16:59;;;;;;;7.60;4.75;;;;;;;;;;10474906;28;20749;-83
2022/08/07 05:22:27;;;;;;;7.35;4.22;;;;;;;;;;10477863;28;20412;-82
2022/08/07 05:27:41;;;;;;;7.18;4.00;;;;;;;;;;10467562;28;20572;-83
2022/08/07 05:33:16;;;;;;;9.82;4.70;;;;;;;;;;10462504;28;20040;-82
2022/08/07 05:38:32;;;;;;;5.03;3.45;;;;;;;;;;10473550;28;21696;-82
2022/08/07 05:44:02;;;;;;;7.50;3.75;;;;;;;;;;10462458;28;20600;-82
2022/08/07 05:49:17;;;;;;;4.13;3.05;;;;;;;;;;10471362;28;20049;-81
2022/08/07 05:54:28;;;;;;;4.45;3.03;;;;;;;;;;10462809;28;20048;-81
2022/08/07 06:00:19;;;;;;;5.57;2.95;;;;;;;;;;10464038;28;20055;-82
2022/08/07 06:05:42;;;;;;;4.53;3.08;;;;;;;;;;10467214;28;20592;-83
2022/08/07 06:10:59;;;;;;;5.65;2.75;;;;;;;;;;10480458;28;20052;-84
2022/08/07 06:16:11;;;;;;;5.63;2.70;;;;;;;;;;10470459;28;20117;-83
2022/08/07 06:21:17;;;;;;;4.40;2.47;;;;;;;;;;10464385;28;20049;-82
2022/08/07 06:26:51;;;;;;;3.60;2.55;;;;;;;;;;10472372;28;20493;-83
2022/08/07 06:32:00;;;;;;;2.83;2.30;;;;;;;;;;10465830;28;20176;-83
2022/08/07 06:37:08;;;;;;;3.40;2.22;;;;;;;;;;10466926;28;20114;-82
2022/08/07 06:42:26;;;;;;;4.47;2.40;;;;;;;;;;10466136;28;20044;-82
2022/08/07 06:47:53;;;;;;;5.03;2.20;;;;;;;;;;10470875;28;20500;-82
2022/08/07 06:58:49;;;;;;;3.60;2.40;;;;;;;;;;10492148;28;20052;-82
2022/08/07 07:04:20;;;;;;;3.55;2.20;;;;;;;;;;10484036;28;20035;-81
2022/08/07 07:09:47;;;;;;;3.00;2.35;;;;;;;;;;10469085;28;20166;-81
2022/08/07 07:15:14;;;;;;;2.60;1.92;;;;;;;;;;10454022;28;20043;-81
2022/08/07 07:20:34;;;;;;;3.45;2.25;;;;;;;;;;10474586;28;20519;-80
2022/08/07 07:25:46;;;;;;;3.42;2.22;;;;;;;;;;10442455;28;20075;-82
2022/08/07 07:31:32;;;;;;;3.22;2.00;;;;;;;;;;10463167;28;20132;-84
2022/08/07 07:37:00;;;;;;;3.20;2.40;;;;;;;;;;10458791;28;20060;-83
2022/08/07 07:42:37;;;;;;;3.60;2.30;;;;;;;;;;10491121;28;20045;-83
2022/08/07 07:47:57;;;;;;;3.90;2.35;;;;;;;;;;10458773;28;20072;-84
2022/08/07 07:53:07;;;;;;;2.53;2.22;;;;;;;;;;10479885;28;20605;-84
2022/08/07 07:58:36;;;;;;;2.42;2.22;;;;;;;;;;10481127;28;20154;-84
2022/08/07 08:03:46;;;;;;;2.20;1.90;;;;;;;;;;10434579;28;20048;-83
2022/08/07 08:09:16;;;;;;;3.20;2.03;;;;;;;;;;10468574;28;20039;-83
2022/08/07 08:14:26;;;;;;;3.30;2.05;;;;;;;;;;10466243;28;20045;-82
2022/08/07 08:19:51;;;;;;;3.60;2.08;;;;;;;;;;10462854;28;20041;-82
2022/08/07 08:36:24;;;;;;;3.13;1.92;;;;;;;;;;10468924;28;20040;-82
2022/08/07 08:41:39;;;;;;;2.00;1.90;;;;;;;;;;10484211;28;20492;-82
2022/08/07 08:47:06;;;;;;;4.97;2.25;;;;;;;;;;10480192;28;20465;-82
2022/08/07 08:52:20;;;;;;;4.07;2.00;;;;;;;;;;10483021;28;20044;-82
2022/08/07 08:57:29;;;;;;;3.17;2.13;;;;;;;;;;10468884;28;20063;-81
2022/08/07 09:08:28;;;;;;;3.08;2.80;;;;;;;;;;10481701;28;20029;-84
2022/08/07 09:13:39;;;;;;;2.42;2.03;;;;;;;;;;10488151;28;20060;-82
2022/08/07 09:19:11;;;;;;;2.38;2.17;;;;;;;;;;10466150;28;20513;-87
2022/08/07 09:24:53;;;;;;;3.40;2.10;;;;;;;;;;10458680;28;20135;-87
2022/08/07 09:30:17;;;;;;;2.13;1.98;;;;;;;;;;10450903;28;20109;-87
2022/08/07 09:35:46;;;;;;;2.17;1.92;;;;;;;;;;10463604;28;20044;-85
2022/08/07 09:41:18;;;;;;;2.00;1.90;;;;;;;;;;10467913;28;20609;-86
2022/08/07 09:46:44;;;;;;;2.65;2.00;;;;;;;;;;10485232;28;20103;-87
2022/08/07 09:52:19;;;;;;;3.78;2.42;;;;;;;;;;10478148;28;20051;-86
2022/08/07 09:58:11;;;;;;;2.45;2.20;;;;;;;;;;10500024;28;20043;-86
2022/08/07 10:03:37;;;;;;;2.55;1.90;;;;;;;;;;10484740;28;20062;-85
2022/08/07 10:09:24;;;;;;;2.15;1.90;;;;;;;;;;10466034;28;20036;-85
2022/08/07 10:15:10;;;;;;;3.10;1.95;;;;;;;;;;10490091;28;20065;-77
2022/08/07 10:20:28;;;;;;;7.90;3.70;;;;;;;;;;10466715;28;20043;-77
2022/08/07 10:25:43;;;;;;;3.25;2.20;;;;;;;;;;10483082;28;20040;-75
2022/08/07 10:30:56;;;;;;;;;;;;;;;;;;10470532;28;20040;-75
2022/08/07 10:58:21;;;;;;;3.90;2.40;;;;;;;;;;11464137;23;20048;-78
2022/08/07 11:03:38;;;;;;;2.50;2.00;;;;;;;;;;10200133;29;20048;-80
2022/08/07 11:09:01;;;;;;;2.95;2.70;;;;;;;;;;10199542;29;20043;-79
2022/08/07 11:14:10;;;;;;;4.22;2.22;;;;;;;;;;10198027;29;20131;-78
2022/08/07 11:19:36;;;;;;;2.43;2.10;;;;;;;;;;10194124;29;20048;-78
2022/08/07 11:24:45;;;;;;;3.28;2.60;;;;;;;;;;10195394;29;20118;-79
2022/08/07 11:29:58;;;;;;;2.63;2.10;;;;;;;;;;10198337;29;20572;-78
2022/08/07 11:35:23;;;;;;;2.53;2.20;;;;;;;;;;10198743;29;20674;-77
2022/08/07 11:40:34;;;;;;;2.50;2.30;;;;;;;;;;10195788;29;20040;-82
2022/08/07 11:45:45;;;;;;;2.50;2.30;;;;;;;;;;10481440;23;20048;-81
2022/08/07 11:51:01;;;;;;;4.53;2.30;;;;;;;;;;10177231;29;20115;-81
2022/08/07 11:56:10;;;;;;;2.95;2.33;;;;;;;;;;10166623;29;20074;-81
2022/08/07 12:01:41;;;;;;;3.15;2.15;;;;;;;;;;10162875;29;20048;-82
2022/08/07 12:07:06;;;;;;;2.55;2.35;;;;;;;;;;10165082;29;20137;-81
2022/08/07 12:12:35;;;;;;;2.63;2.17;;;;;;;;;;10161866;29;20071;-81
2022/08/07 12:17:41;;;;;;;2.33;2.10;;;;;;;;;;10176524;29;20051;-82
2022/08/07 12:23:23;;;;;;;2.40;2.20;;;;;;;;;;10160896;29;20040;-82
2022/08/07 12:28:49;;;;;;;2.67;2.45;;;;;;;;;;10162108;29;20047;-81
2022/08/07 12:33:58;;;;;;;2.20;2.08;;;;;;;;;;10159810;29;20143;-82
2022/08/07 12:39:06;;;;;;;2.45;1.90;;;;;;;;;;10159922;29;20127;-81
2022/08/07 12:44:30;;;;;;;4.63;2.25;;;;;;;;;;10158446;29;20155;-82
2022/08/07 12:49:41;;;;;;;3.05;2.13;;;;;;;;;;10172967;29;20461;-81
2022/08/07 12:54:57;;;;;;;2.58;2.30;;;;;;;;;;10155259;29;20135;-81
2022/08/07 13:00:08;;;;;;;2.80;2.05;;;;;;;;;;10160042;29;20036;-80
2022/08/07 13:05:41;;;;;;;2.25;2.05;;;;;;;;;;10159001;29;20040;-81
2022/08/07 13:11:30;;;;;;;2.22;2.03;;;;;;;;;;10157390;29;20044;-81
2022/08/07 13:16:59;;;;;;;3.58;2.13;;;;;;;;;;10152198;29;20087;-80
2022/08/07 13:22:07;;;;;;;2.55;1.92;;;;;;;;;;10158014;29;20285;-79
2022/08/07 13:27:31;;;;;;;2.63;1.88;;;;;;;;;;10172904;29;20039;-80
2022/08/07 13:32:56;;;;;;;2.95;2.03;;;;;;;;;;10158228;29;20107;-82
2022/08/07 13:38:03;;;;;;;2.58;1.77;;;;;;;;;;10157083;29;20068;-81
2022/08/07 13:43:11;;;;;;;2.65;1.73;;;;;;;;;;10156928;29;20036;-80
2022/08/07 13:48:14;;;;;;;2.45;1.95;;;;;;;;;;10166193;29;20400;-82
2022/08/07 13:53:34;;;;;;;4.00;1.98;;;;;;;;;;10164651;29;20046;-79
2022/08/07 13:59:01;;;;;;;2.80;1.80;;;;;;;;;;10165962;29;20131;-81
2022/08/07 14:04:08;;;;;;;2.28;1.70;;;;;;;;;;10164662;29;20123;-80
2022/08/07 14:09:20;;;;;;;2.95;1.75;;;;;;;;;;10165223;29;20036;-79
2022/08/07 14:14:43;;;;;;;2.08;1.60;;;;;;;;;;10165536;29;20047;-80
2022/08/07 14:19:49;;;;;;;3.83;1.90;;;;;;;;;;10166473;29;20055;-82
2022/08/07 14:25:16;;;;;;;1.92;1.73;;;;;;;;;;10160053;29;20048;-80
2022/08/07 14:30:22;;;;;;;1.90;1.70;;;;;;;;;;10165257;29;20545;-81
2022/08/07 14:35:36;;;;;;;2.95;1.80;;;;;;;;;;10164967;29;20072;-80
2022/08/07 14:40:53;;;;;;;2.10;1.65;;;;;;;;;;10164668;29;20071;-80
2022/08/07 14:45:58;;;;;;;2.10;1.80;;;;;;;;;;10164102;29;20037;-82
2022/08/07 14:51:06;;;;;;;2.08;1.73;;;;;;;;;;10160737;29;20048;-81
2022/08/07 14:56:21;;;;;;;1.75;1.60;;;;;;;;;;10161135;29;20036;-81
2022/08/07 15:01:33;;;;;;;2.55;2.10;;;;;;;;;;10162612;29;20040;-81
2022/08/07 15:06:52;;;;;;;2.85;2.10;;;;;;;;;;10165840;29;20128;-81
2022/08/07 15:11:59;;;;;;;2.35;1.80;;;;;;;;;;10160417;29;20054;-80
2022/08/07 15:17:09;;;;;;;3.38;2.13;;;;;;;;;;10164452;29;20032;-80
2022/08/07 15:22:14;;;;;;;2.17;1.90;;;;;;;;;;10161823;29;20055;-81
2022/08/07 15:27:39;;;;;;;2.50;1.90;;;;;;;;;;10171466;29;20040;-80
2022/08/07 15:33:04;;;;;;;3.30;2.30;;;;;;;;;;10527965;23;20051;-79
2022/08/07 15:38:25;;;;;;;3.03;2.40;;;;;;;;;;10171964;29;20523;-79
2022/08/07 15:43:37;;;;;;;3.08;2.10;;;;;;;;;;10170264;29;20516;-79
2022/08/07 15:48:59;;;;;;;4.20;2.50;;;;;;;;;;10174811;29;20682;-79
2022/08/07 15:54:23;;;;;;;3.10;2.40;;;;;;;;;;10168039;29;20036;-79
2022/08/07 15:59:30;;;;;;;5.88;2.85;;;;;;;;;;10165744;29;20066;-79
2022/08/07 16:04:45;;;;;;;3.88;2.45;;;;;;;;;;10173229;29;20055;-79
2022/08/07 16:09:50;;;;;;;2.90;2.40;;;;;;;;;;10166270;29;20047;-81
2022/08/07 16:15:05;;;;;;;4.35;2.45;;;;;;;;;;10174134;29;20048;-80
2022/08/07 16:20:27;;;;;;;7.25;2.92;;;;;;;;;;10175273;29;20549;-79
2022/08/07 16:25:41;;;;;;;5.18;2.50;;;;;;;;;;10167991;29;20119;-79
2022/08/07 16:31:02;;;;;;;5.25;2.80;;;;;;;;;;10172693;29;20635;-79
2022/08/07 16:36:23;;;;;;;4.38;2.67;;;;;;;;;;10188659;29;20070;-79
2022/08/07 16:41:38;;;;;;;4.40;2.85;;;;;;;;;;10173512;29;20552;-81
2022/08/07 16:47:11;;;;;;;4.13;3.00;;;;;;;;;;10183632;29;20186;-82
2022/08/07 16:52:43;;;;;;;7.65;2.95;;;;;;;;;;10157431;29;20079;-83
2022/08/07 16:58:04;;;;;;;3.75;2.70;;;;;;;;;;10166874;28;20068;-83
2022/08/07 17:03:18;;;;;;;6.80;2.65;;;;;;;;;;10168190;29;20366;-81
2022/08/07 17:08:45;;;;;;;4.85;3.00;;;;;;;;;;10167114;29;20044;-83
2022/08/07 17:14:13;;;;;;;4.22;3.05;;;;;;;;;;10326758;23;20044;-80
2022/08/07 17:19:35;;;;;;;3.92;2.67;;;;;;;;;;10222246;28;20036;-82
2022/08/07 17:25:04;;;;;;;5.13;2.95;;;;;;;;;;10231917;28;20083;-80
2022/08/07 17:30:12;;;;;;;5.70;2.97;;;;;;;;;;10241392;28;20046;-78
2022/08/07 17:35:33;;;;;;;3.50;2.72;;;;;;;;;;10213654;29;20144;-81
2022/08/07 17:41:01;;;;;;;3.65;2.58;;;;;;;;;;10220522;29;20042;-81
2022/08/07 17:46:28;;;;;;;4.68;2.92;;;;;;;;;;10217978;29;20035;-80
2022/08/07 17:51:44;;;;;;;4.68;3.00;;;;;;;;;;10226204;29;20036;-80
2022/08/07 17:57:05;;;;;;;4.25;3.00;;;;;;;;;;10220272;29;20063;-79
2022/08/07 18:02:25;;;;;;;6.18;3.00;;;;;;;;;;10231731;29;20102;-81
2022/08/07 18:07:37;;;;;;;5.72;3.00;;;;;;;;;;10222332;29;20068;-80
2022/08/07 18:13:08;;;;;;;3.60;2.97;;;;;;;;;;10240569;28;20044;-79
2022/08/07 18:18:13;;;;;;;7.03;3.20;;;;;;;;;;10218589;29;20094;-80
2022/08/07 18:23:46;;;;;;;3.97;3.10;;;;;;;;;;10231767;28;20048;-80
2022/08/07 18:29:04;;;;;;;4.85;2.58;;;;;;;;;;10240795;29;20055;-80
2022/08/07 18:34:37;;;;;;;3.42;2.42;;;;;;;;;;10230985;29;20078;-81
2022/08/07 18:40:11;;;;;;;3.42;2.88;;;;;;;;;;10227597;29;20095;-80
2022/08/07 18:45:34;;;;;;;;;;;;;;;;;;10224679;29;20360;-79
2022/08/07 18:50:56;;;;;;;4.32;2.97;;;;;;;;;;10218218;29;19927;-79
2022/08/07 18:56:11;;;;;;;3.95;2.90;;;;;;;;;;10228279;29;20051;-80
2022/08/07 19:01:20;;;;;;;4.20;2.83;;;;;;;;;;10227788;28;20138;-80
2022/08/07 19:06:49;;;;;;;4.43;3.10;;;;;;;;;;10219818;29;20484;-80
2022/08/07 19:12:07;;;;;;;4.65;3.00;;;;;;;;;;10228277;29;20040;-80
2022/08/07 19:17:15;;;;;;;5.55;3.40;;;;;;;;;;10231549;28;20047;-80
2022/08/07 19:22:40;;;;;;;4.50;3.28;;;;;;;;;;10246447;28;20044;-80
2022/08/07 19:27:48;;;;;;;3.67;2.85;;;;;;;;;;10229280;29;20031;-80
2022/08/07 19:33:11;;;;;;;6.03;2.80;;;;;;;;;;10250337;28;20131;-80
2022/08/07 19:38:20;;;;;;;6.30;3.13;;;;;;;;;;10252727;28;20110;-76
2022/08/07 19:43:28;;;;;;;7.82;3.17;;;;;;;;;;10239121;28;20051;-76
2022/08/07 19:48:55;;;;;;;5.28;2.97;;;;;;;;;;10214913;29;20160;-79
2022/08/07 19:54:03;;;;;;;5.13;2.95;;;;;;;;;;10218491;29;20043;-76
2022/08/07 19:59:29;;;;;;;7.78;3.03;;;;;;;;;;10205283;29;20036;-76
2022/08/07 20:04:45;;;;;;;4.40;2.80;;;;;;;;;;10198587;29;20031;-76
2022/08/07 20:09:52;;;;;;;4.93;3.20;;;;;;;;;;10201914;29;20625;-76
2022/08/07 20:15:19;;;;;;;5.47;2.80;;;;;;;;;;10201195;29;20040;-76
2022/08/07 20:20:25;;;;;;;4.70;3.15;;;;;;;;;;10203943;29;20478;-78
2022/08/07 20:25:32;;;;;;;5.32;3.35;;;;;;;;;;10204031;29;20091;-75
2022/08/07 20:30:45;;;;;;;6.88;3.65;;;;;;;;;;10204050;29;20046;-76
2022/08/07 20:35:51;;;;;;;4.50;2.97;;;;;;;;;;10199398;29;20040;-77
2022/08/07 20:41:07;;;;;;;5.65;3.03;;;;;;;;;;10205668;29;20035;-77
2022/08/07 20:46:17;;;;;;;9.07;3.58;;;;;;;;;;10212216;29;20139;-76
2022/08/07 20:51:34;;;;;;;6.50;3.67;;;;;;;;;;10213486;29;20032;-77
2022/08/07 20:56:42;;;;;;;4.38;3.10;;;;;;;;;;10212733;29;20075;-77
2022/08/07 21:01:53;;;;;;;5.82;3.00;;;;;;;;;;10209606;29;20074;-75
2022/08/07 21:07:02;;;;;;;6.88;3.38;;;;;;;;;;10209366;29;20036;-78
2022/08/07 21:12:16;;;;;;;6.57;3.22;;;;;;;;;;10211746;29;20044;-80
2022/08/07 21:17:35;;;;;;;6.90;3.58;;;;;;;;;;10212520;29;20035;-80
2022/08/07 21:22:59;;;;;;;6.78;3.50;;;;;;;;;;10212289;29;20118;-78
2022/08/07 21:28:11;;;;;;;6.20;3.58;;;;;;;;;;10212460;29;20501;-78
2022/08/07 21:33:22;;;;;;;6.55;3.88;;;;;;;;;;10226192;28;20047;-78
2022/08/07 21:38:46;;;;;;;5.75;3.65;;;;;;;;;;10205471;29;20063;-80
2022/08/07 21:43:55;;;;;;;5.38;3.63;;;;;;;;;;10205865;29;20047;-79
2022/08/07 21:49:13;;;;;;;5.78;3.60;;;;;;;;;;10205153;29;20175;-79
2022/08/07 21:54:22;;;;;;;6.90;3.45;;;;;;;;;;10205938;29;20409;-78
2022/08/07 21:59:40;;;;;;;4.82;3.58;;;;;;;;;;10204691;29;20489;-81
2022/08/07 22:05:05;;;;;;;4.68;3.17;;;;;;;;;;10203541;29;20055;-79
2022/08/07 22:10:18;;;;;;;5.88;3.50;;;;;;;;;;10207101;29;20389;-78
2022/08/07 22:15:23;;;;;;;5.85;3.35;;;;;;;;;;10208823;29;20059;-80
2022/08/07 22:20:49;;;;;;;5.28;3.40;;;;;;;;;;10212952;29;20040;-80
2022/08/07 22:25:59;;;;;;;7.45;3.30;;;;;;;;;;10212032;29;20052;-81
2022/08/07 22:31:05;;;;;;;5.03;3.30;;;;;;;;;;10211420;29;20039;-81
2022/08/07 22:36:16;;;;;;;4.15;2.88;;;;;;;;;;10212720;29;20145;-79
2022/08/07 22:41:22;;;;;;;5.05;3.15;;;;;;;;;;10209663;29;20048;-79
2022/08/07 22:47:01;;;;;;;4.32;3.20;;;;;;;;;;10210503;29;20683;-78
2022/08/07 22:52:23;;;;;;;6.50;3.30;;;;;;;;;;10211231;29;20130;-80
2022/08/07 22:57:50;;;;;;;7.35;3.55;;;;;;;;;;10209033;29;20501;-80
2022/08/07 23:03:01;;;;;;;4.35;2.83;;;;;;;;;;10211579;29;20115;-80
2022/08/07 23:08:19;;;;;;;4.75;3.15;;;;;;;;;;10205879;29;20504;-80
2022/08/07 23:13:45;;;;;;;5.00;3.20;;;;;;;;;;10208776;29;20122;-79
2022/08/07 23:25:03;;;;;;;5.07;3.55;;;;;;;;;;10197972;29;20059;-79
2022/08/07 23:30:09;;;;;;;8.05;4.63;;;;;;;;;;10202552;29;20047;-78
2022/08/07 23:35:37;;;;;;;5.05;3.30;;;;;;;;;;10203840;29;20040;-79
2022/08/07 23:40:47;;;;;;;5.55;3.20;;;;;;;;;;10202515;29;21242;-80
2022/08/07 23:45:59;;;;;;;6.65;3.20;;;;;;;;;;10199448;29;20058;-79
2022/08/07 23:51:13;;;;;;;5.18;3.25;;;;;;;;;;10200343;29;20051;-79
2022/08/07 23:56:43;;;;;;;3.85;3.17;;;;;;;;;;10199733;29;20552;-80
